sensor_id;sensor_type;location;lat;lon;timestamp;P1;durP1;ratioP1;P2;durP2;ratioP2
9178;SDS011;71287;48.414;11.478;2023-12-20T00:00:29;1.20;;;1.10;;
9178;SDS011;71287;48.414;11.478;2023-12-20T00:02:56;0.90;;;0.77;;
9178;SDS011;71287;48.414;11.478;2023-12-20T00:05:23;1.10;;;1.00;;
9178;SDS011;71287;48.414;11.478;2023-12-20T00:07:50;1.30;;;1.10;;
9178;SDS011;71287;48.414;11.478;2023-12-20T00:10:16;1.50;;;1.10;;
9178;SDS011;71287;48.414;11.478;2023-12-20T00:12:44;1.53;;;1.20;;
9178;SDS011;71287;48.414;11.478;2023-12-20T00:15:11;2.30;;;1.00;;
9178;SDS011;71287;48.414;11.478;2023-12-20T00:17:38;2.30;;;1.10;;
9178;SDS011;71287;48.414;11.478;2023-12-20T00:20:05;1.17;;;0.90;;
9178;SDS011;71287;48.414;11.478;2023-12-20T00:22:33;2.00;;;1.00;;
9178;SDS011;71287;48.414;11.478;2023-12-20T00:24:59;2.40;;;1.03;;
9178;SDS011;71287;48.414;11.478;2023-12-20T00:27:26;1.40;;;1.10;;
9178;SDS011;71287;48.414;11.478;2023-12-20T00:29:54;2.60;;;1.10;;
9178;SDS011;71287;48.414;11.478;2023-12-20T00:32:21;1.60;;;1.00;;
9178;SDS011;71287;48.414;11.478;2023-12-20T00:34:48;1.63;;;1.27;;
9178;SDS011;71287;48.414;11.478;2023-12-20T00:37:15;1.10;;;1.00;;
9178;SDS011;71287;48.414;11.478;2023-12-20T00:39:42;1.57;;;1.00;;
9178;SDS011;71287;48.414;11.478;2023-12-20T00:42:08;1.60;;;0.90;;
9178;SDS011;71287;48.414;11.478;2023-12-20T00:44:35;1.60;;;1.50;;
9178;SDS011;71287;48.414;11.478;2023-12-20T00:47:04;1.70;;;1.33;;
9178;SDS011;71287;48.414;11.478;2023-12-20T00:49:30;1.20;;;1.10;;
9178;SDS011;71287;48.414;11.478;2023-12-20T00:51:57;1.93;;;1.40;;
9178;SDS011;71287;48.414;11.478;2023-12-20T00:54:24;1.27;;;1.17;;
9178;SDS011;71287;48.414;11.478;2023-12-20T00:56:51;2.30;;;1.13;;
9178;SDS011;71287;48.414;11.478;2023-12-20T00:59:17;1.33;;;1.20;;
9178;SDS011;71287;48.414;11.478;2023-12-20T01:01:45;1.37;;;1.20;;
9178;SDS011;71287;48.414;11.478;2023-12-20T01:04:13;1.50;;;1.40;;
9178;SDS011;71287;48.414;11.478;2023-12-20T01:06:39;1.90;;;1.20;;
9178;SDS011;71287;48.414;11.478;2023-12-20T01:09:06;1.33;;;1.20;;
9178;SDS011;71287;48.414;11.478;2023-12-20T01:11:33;2.20;;;1.30;;
9178;SDS011;71287;48.414;11.478;2023-12-20T01:14:00;1.17;;;1.07;;
9178;SDS011;71287;48.414;11.478;2023-12-20T01:16:26;1.30;;;1.20;;
9178;SDS011;71287;48.414;11.478;2023-12-20T01:18:53;1.77;;;1.47;;
9178;SDS011;71287;48.414;11.478;2023-12-20T01:21:21;1.30;;;1.20;;
9178;SDS011;71287;48.414;11.478;2023-12-20T01:23:48;1.13;;;1.03;;
9178;SDS011;71287;48.414;11.478;2023-12-20T01:26:14;1.33;;;1.23;;
9178;SDS011;71287;48.414;11.478;2023-12-20T01:28:41;1.30;;;1.20;;
9178;SDS011;71287;48.414;11.478;2023-12-20T01:31:08;1.83;;;1.37;;
9178;SDS011;71287;48.414;11.478;2023-12-20T01:33:35;1.67;;;1.23;;
9178;SDS011;71287;48.414;11.478;2023-12-20T01:36:02;2.27;;;1.20;;
9178;SDS011;71287;48.414;11.478;2023-12-20T01:38:30;1.40;;;1.20;;
9178;SDS011;71287;48.414;11.478;2023-12-20T01:40:57;1.30;;;1.20;;
9178;SDS011;71287;48.414;11.478;2023-12-20T01:43:24;1.70;;;1.00;;
9178;SDS011;71287;48.414;11.478;2023-12-20T01:45:51;1.27;;;1.17;;
9178;SDS011;71287;48.414;11.478;2023-12-20T01:48:18;1.10;;;1.00;;
9178;SDS011;71287;48.414;11.478;2023-12-20T01:50:46;1.30;;;1.20;;
9178;SDS011;71287;48.414;11.478;2023-12-20T01:53:13;1.80;;;1.30;;
9178;SDS011;71287;48.414;11.478;2023-12-20T01:55:42;1.20;;;0.80;;
9178;SDS011;71287;48.414;11.478;2023-12-20T01:58:09;1.40;;;1.30;;
9178;SDS011;71287;48.414;11.478;2023-12-20T02:00:37;1.17;;;1.07;;
9178;SDS011;71287;48.414;11.478;2023-12-20T02:03:04;2.07;;;0.97;;
9178;SDS011;71287;48.414;11.478;2023-12-20T02:05:31;2.23;;;1.10;;
9178;SDS011;71287;48.414;11.478;2023-12-20T02:07:59;1.10;;;1.00;;
9178;SDS011;71287;48.414;11.478;2023-12-20T02:10:26;1.17;;;1.00;;
9178;SDS011;71287;48.414;11.478;2023-12-20T02:12:55;0.97;;;0.90;;
9178;SDS011;71287;48.414;11.478;2023-12-20T02:15:22;1.30;;;1.10;;
9178;SDS011;71287;48.414;11.478;2023-12-20T02:17:48;1.67;;;1.03;;
9178;SDS011;71287;48.414;11.478;2023-12-20T02:20:16;1.43;;;0.90;;
9178;SDS011;71287;48.414;11.478;2023-12-20T02:22:44;0.90;;;0.90;;
9178;SDS011;71287;48.414;11.478;2023-12-20T02:25:11;1.03;;;0.90;;
9178;SDS011;71287;48.414;11.478;2023-12-20T02:27:38;1.43;;;0.93;;
9178;SDS011;71287;48.414;11.478;2023-12-20T02:30:07;1.13;;;0.90;;
9178;SDS011;71287;48.414;11.478;2023-12-20T02:32:34;0.93;;;0.80;;
9178;SDS011;71287;48.414;11.478;2023-12-20T02:35:01;1.67;;;1.40;;
9178;SDS011;71287;48.414;11.478;2023-12-20T02:37:27;1.07;;;1.00;;
9178;SDS011;71287;48.414;11.478;2023-12-20T02:39:55;2.70;;;1.17;;
9178;SDS011;71287;48.414;11.478;2023-12-20T02:42:22;1.20;;;0.90;;
9178;SDS011;71287;48.414;11.478;2023-12-20T02:44:49;1.00;;;1.00;;
9178;SDS011;71287;48.414;11.478;2023-12-20T02:47:15;1.40;;;1.30;;
9178;SDS011;71287;48.414;11.478;2023-12-20T02:49:42;1.13;;;0.83;;
9178;SDS011;71287;48.414;11.478;2023-12-20T02:52:09;0.80;;;0.70;;
9178;SDS011;71287;48.414;11.478;2023-12-20T02:54:36;1.00;;;0.90;;
9178;SDS011;71287;48.414;11.478;2023-12-20T02:57:04;1.00;;;0.90;;
9178;SDS011;71287;48.414;11.478;2023-12-20T02:59:31;1.20;;;1.10;;
9178;SDS011;71287;48.414;11.478;2023-12-20T03:01:57;1.70;;;1.07;;
9178;SDS011;71287;48.414;11.478;2023-12-20T03:04:24;0.87;;;0.80;;
9178;SDS011;71287;48.414;11.478;2023-12-20T03:06:51;0.77;;;0.77;;
9178;SDS011;71287;48.414;11.478;2023-12-20T03:09:18;0.60;;;0.60;;
9178;SDS011;71287;48.414;11.478;2023-12-20T03:11:44;0.80;;;0.60;;
9178;SDS011;71287;48.414;11.478;2023-12-20T03:14:13;0.80;;;0.80;;
9178;SDS011;71287;48.414;11.478;2023-12-20T03:16:39;0.80;;;0.80;;
9178;SDS011;71287;48.414;11.478;2023-12-20T03:19:06;0.63;;;0.60;;
9178;SDS011;71287;48.414;11.478;2023-12-20T03:21:33;0.77;;;0.67;;
9178;SDS011;71287;48.414;11.478;2023-12-20T03:24:00;1.00;;;0.90;;
9178;SDS011;71287;48.414;11.478;2023-12-20T03:26:26;0.83;;;0.83;;
9178;SDS011;71287;48.414;11.478;2023-12-20T03:28:53;0.90;;;0.80;;
9178;SDS011;71287;48.414;11.478;2023-12-20T03:31:21;0.80;;;0.80;;
9178;SDS011;71287;48.414;11.478;2023-12-20T03:33:48;0.60;;;0.60;;
9178;SDS011;71287;48.414;11.478;2023-12-20T03:36:16;0.90;;;0.90;;
9178;SDS011;71287;48.414;11.478;2023-12-20T03:38:42;0.73;;;0.73;;
9178;SDS011;71287;48.414;11.478;2023-12-20T03:41:09;0.70;;;0.70;;
9178;SDS011;71287;48.414;11.478;2023-12-20T03:43:36;0.67;;;0.67;;
9178;SDS011;71287;48.414;11.478;2023-12-20T03:46:03;1.00;;;0.80;;
9178;SDS011;71287;48.414;11.478;2023-12-20T03:48:31;0.93;;;0.77;;
9178;SDS011;71287;48.414;11.478;2023-12-20T03:50:57;0.80;;;0.80;;
9178;SDS011;71287;48.414;11.478;2023-12-20T03:53:24;0.87;;;0.87;;
9178;SDS011;71287;48.414;11.478;2023-12-20T03:55:51;0.83;;;0.80;;
9178;SDS011;71287;48.414;11.478;2023-12-20T03:58:18;2.10;;;0.80;;
9178;SDS011;71287;48.414;11.478;2023-12-20T04:00:44;1.00;;;0.90;;
9178;SDS011;71287;48.414;11.478;2023-12-20T04:03:11;1.00;;;0.90;;
9178;SDS011;71287;48.414;11.478;2023-12-20T04:05:40;0.93;;;0.80;;
9178;SDS011;71287;48.414;11.478;2023-12-20T04:08:07;0.60;;;0.60;;
9178;SDS011;71287;48.414;11.478;2023-12-20T04:10:35;0.70;;;0.67;;
9178;SDS011;71287;48.414;11.478;2023-12-20T04:13:02;1.37;;;1.03;;
9178;SDS011;71287;48.414;11.478;2023-12-20T04:15:29;0.70;;;0.70;;
9178;SDS011;71287;48.414;11.478;2023-12-20T04:17:56;0.70;;;0.70;;
9178;SDS011;71287;48.414;11.478;2023-12-20T04:20:23;0.60;;;0.60;;
9178;SDS011;71287;48.414;11.478;2023-12-20T04:22:51;1.17;;;0.70;;
9178;SDS011;71287;48.414;11.478;2023-12-20T04:25:17;0.83;;;0.80;;
9178;SDS011;71287;48.414;11.478;2023-12-20T04:27:44;0.70;;;0.70;;
9178;SDS011;71287;48.414;11.478;2023-12-20T04:30:11;0.73;;;0.67;;
9178;SDS011;71287;48.414;11.478;2023-12-20T04:32:38;0.80;;;0.80;;
9178;SDS011;71287;48.414;11.478;2023-12-20T04:35:05;1.67;;;0.80;;
9178;SDS011;71287;48.414;11.478;2023-12-20T04:37:33;1.23;;;0.80;;
9178;SDS011;71287;48.414;11.478;2023-12-20T04:40:01;0.83;;;0.70;;
9178;SDS011;71287;48.414;11.478;2023-12-20T04:42:30;0.63;;;0.63;;
9178;SDS011;71287;48.414;11.478;2023-12-20T04:44:57;0.93;;;0.90;;
9178;SDS011;71287;48.414;11.478;2023-12-20T04:47:23;0.60;;;0.60;;
9178;SDS011;71287;48.414;11.478;2023-12-20T04:49:50;0.87;;;0.70;;
9178;SDS011;71287;48.414;11.478;2023-12-20T04:52:17;0.50;;;0.50;;
9178;SDS011;71287;48.414;11.478;2023-12-20T04:54:45;1.80;;;0.80;;
9178;SDS011;71287;48.414;11.478;2023-12-20T04:57:13;0.80;;;0.70;;
9178;SDS011;71287;48.414;11.478;2023-12-20T04:59:40;0.70;;;0.70;;
9178;SDS011;71287;48.414;11.478;2023-12-20T05:02:07;0.80;;;0.80;;
9178;SDS011;71287;48.414;11.478;2023-12-20T05:04:34;0.80;;;0.80;;
9178;SDS011;71287;48.414;11.478;2023-12-20T05:07:01;0.80;;;0.80;;
9178;SDS011;71287;48.414;11.478;2023-12-20T05:09:29;0.80;;;0.80;;
9178;SDS011;71287;48.414;11.478;2023-12-20T05:11:56;1.20;;;0.90;;
9178;SDS011;71287;48.414;11.478;2023-12-20T05:14:24;0.87;;;0.80;;
9178;SDS011;71287;48.414;11.478;2023-12-20T05:16:51;0.80;;;0.80;;
9178;SDS011;71287;48.414;11.478;2023-12-20T05:19:18;0.93;;;0.87;;
9178;SDS011;71287;48.414;11.478;2023-12-20T05:21:45;1.40;;;0.90;;
9178;SDS011;71287;48.414;11.478;2023-12-20T05:24:11;0.80;;;0.80;;
9178;SDS011;71287;48.414;11.478;2023-12-20T05:26:38;1.83;;;1.50;;
9178;SDS011;71287;48.414;11.478;2023-12-20T05:29:05;1.60;;;0.90;;
9178;SDS011;71287;48.414;11.478;2023-12-20T05:31:33;1.00;;;1.00;;
9178;SDS011;71287;48.414;11.478;2023-12-20T05:34:00;0.90;;;0.80;;
9178;SDS011;71287;48.414;11.478;2023-12-20T05:36:26;1.30;;;1.00;;
9178;SDS011;71287;48.414;11.478;2023-12-20T05:38:53;1.17;;;0.80;;
9178;SDS011;71287;48.414;11.478;2023-12-20T05:41:20;0.63;;;0.63;;
9178;SDS011;71287;48.414;11.478;2023-12-20T05:43:47;0.60;;;0.60;;
9178;SDS011;71287;48.414;11.478;2023-12-20T05:46:14;0.87;;;0.87;;
9178;SDS011;71287;48.414;11.478;2023-12-20T05:48:42;1.30;;;0.90;;
9178;SDS011;71287;48.414;11.478;2023-12-20T05:51:11;0.67;;;0.67;;
9178;SDS011;71287;48.414;11.478;2023-12-20T05:53:38;0.70;;;0.70;;
9178;SDS011;71287;48.414;11.478;2023-12-20T05:56:05;0.73;;;0.73;;
9178;SDS011;71287;48.414;11.478;2023-12-20T05:58:32;0.90;;;0.50;;
9178;SDS011;71287;48.414;11.478;2023-12-20T06:00:59;0.63;;;0.60;;
9178;SDS011;71287;48.414;11.478;2023-12-20T06:03:25;0.70;;;0.70;;
9178;SDS011;71287;48.414;11.478;2023-12-20T06:05:53;0.90;;;0.90;;
9178;SDS011;71287;48.414;11.478;2023-12-20T06:08:20;1.00;;;0.90;;
9178;SDS011;71287;48.414;11.478;2023-12-20T06:10:48;0.90;;;0.90;;
9178;SDS011;71287;48.414;11.478;2023-12-20T06:13:15;1.27;;;1.00;;
9178;SDS011;71287;48.414;11.478;2023-12-20T06:15:41;1.00;;;0.90;;
9178;SDS011;71287;48.414;11.478;2023-12-20T06:18:08;0.93;;;0.93;;
9178;SDS011;71287;48.414;11.478;2023-12-20T06:20:35;0.83;;;0.80;;
9178;SDS011;71287;48.414;11.478;2023-12-20T06:23:03;0.70;;;0.70;;
9178;SDS011;71287;48.414;11.478;2023-12-20T06:25:30;0.70;;;0.70;;
9178;SDS011;71287;48.414;11.478;2023-12-20T06:27:57;0.70;;;0.70;;
9178;SDS011;71287;48.414;11.478;2023-12-20T06:30:23;1.23;;;0.70;;
9178;SDS011;71287;48.414;11.478;2023-12-20T06:32:52;0.50;;;0.50;;
9178;SDS011;71287;48.414;11.478;2023-12-20T06:35:19;0.70;;;0.70;;
9178;SDS011;71287;48.414;11.478;2023-12-20T06:37:46;0.90;;;0.77;;
9178;SDS011;71287;48.414;11.478;2023-12-20T06:40:14;0.63;;;0.63;;
9178;SDS011;71287;48.414;11.478;2023-12-20T06:42:42;1.20;;;0.80;;
9178;SDS011;71287;48.414;11.478;2023-12-20T06:45:09;0.60;;;0.60;;
9178;SDS011;71287;48.414;11.478;2023-12-20T06:47:36;0.60;;;0.60;;
9178;SDS011;71287;48.414;11.478;2023-12-20T06:50:03;0.80;;;0.60;;
9178;SDS011;71287;48.414;11.478;2023-12-20T06:52:33;0.80;;;0.70;;
9178;SDS011;71287;48.414;11.478;2023-12-20T06:55:00;0.93;;;0.90;;
9178;SDS011;71287;48.414;11.478;2023-12-20T06:57:28;1.40;;;1.13;;
9178;SDS011;71287;48.414;11.478;2023-12-20T06:59:55;0.70;;;0.70;;
9178;SDS011;71287;48.414;11.478;2023-12-20T07:02:22;1.53;;;0.90;;
9178;SDS011;71287;48.414;11.478;2023-12-20T07:04:49;1.07;;;0.97;;
9178;SDS011;71287;48.414;11.478;2023-12-20T07:07:16;1.43;;;1.10;;
9178;SDS011;71287;48.414;11.478;2023-12-20T07:09:43;0.83;;;0.83;;
9178;SDS011;71287;48.414;11.478;2023-12-20T07:12:09;0.60;;;0.60;;
9178;SDS011;71287;48.414;11.478;2023-12-20T07:14:37;0.80;;;0.80;;
9178;SDS011;71287;48.414;11.478;2023-12-20T07:17:04;1.40;;;0.80;;
9178;SDS011;71287;48.414;11.478;2023-12-20T07:19:36;0.70;;;0.70;;
9178;SDS011;71287;48.414;11.478;2023-12-20T07:22:03;0.70;;;0.70;;
9178;SDS011;71287;48.414;11.478;2023-12-20T07:24:31;0.90;;;0.90;;
9178;SDS011;71287;48.414;11.478;2023-12-20T07:26:58;0.90;;;0.90;;
9178;SDS011;71287;48.414;11.478;2023-12-20T07:29:25;0.80;;;0.80;;
9178;SDS011;71287;48.414;11.478;2023-12-20T07:31:53;0.77;;;0.77;;
9178;SDS011;71287;48.414;11.478;2023-12-20T07:34:20;0.80;;;0.80;;
9178;SDS011;71287;48.414;11.478;2023-12-20T07:36:47;1.20;;;1.00;;
9178;SDS011;71287;48.414;11.478;2023-12-20T07:39:14;1.40;;;1.30;;
9178;SDS011;71287;48.414;11.478;2023-12-20T07:41:40;1.20;;;1.10;;
9178;SDS011;71287;48.414;11.478;2023-12-20T07:44:07;1.60;;;1.30;;
9178;SDS011;71287;48.414;11.478;2023-12-20T07:46:34;1.40;;;1.30;;
9178;SDS011;71287;48.414;11.478;2023-12-20T07:49:03;1.20;;;1.10;;
9178;SDS011;71287;48.414;11.478;2023-12-20T07:51:31;1.30;;;1.20;;
9178;SDS011;71287;48.414;11.478;2023-12-20T07:53:57;1.30;;;1.20;;
9178;SDS011;71287;48.414;11.478;2023-12-20T07:56:24;1.40;;;1.30;;
9178;SDS011;71287;48.414;11.478;2023-12-20T07:58:51;1.93;;;1.70;;
9178;SDS011;71287;48.414;11.478;2023-12-20T08:01:17;1.67;;;1.57;;
9178;SDS011;71287;48.414;11.478;2023-12-20T08:03:44;2.00;;;1.90;;
9178;SDS011;71287;48.414;11.478;2023-12-20T08:06:12;1.60;;;1.50;;
9178;SDS011;71287;48.414;11.478;2023-12-20T08:08:39;1.97;;;1.87;;
9178;SDS011;71287;48.414;11.478;2023-12-20T08:11:06;2.03;;;1.87;;
9178;SDS011;71287;48.414;11.478;2023-12-20T08:13:33;1.87;;;1.77;;
9178;SDS011;71287;48.414;11.478;2023-12-20T08:15:59;1.80;;;1.70;;
9178;SDS011;71287;48.414;11.478;2023-12-20T08:18:28;1.50;;;1.40;;
9178;SDS011;71287;48.414;11.478;2023-12-20T08:20:54;1.90;;;1.80;;
9178;SDS011;71287;48.414;11.478;2023-12-20T08:23:22;2.03;;;1.70;;
9178;SDS011;71287;48.414;11.478;2023-12-20T08:25:49;1.93;;;1.80;;
9178;SDS011;71287;48.414;11.478;2023-12-20T08:28:16;3.80;;;1.87;;
9178;SDS011;71287;48.414;11.478;2023-12-20T08:30:43;2.10;;;2.00;;
9178;SDS011;71287;48.414;11.478;2023-12-20T08:33:09;2.13;;;1.93;;
9178;SDS011;71287;48.414;11.478;2023-12-20T08:35:37;1.73;;;1.63;;
9178;SDS011;71287;48.414;11.478;2023-12-20T08:38:04;1.70;;;1.60;;
9178;SDS011;71287;48.414;11.478;2023-12-20T08:40:32;2.20;;;1.80;;
9178;SDS011;71287;48.414;11.478;2023-12-20T08:42:59;2.03;;;1.93;;
9178;SDS011;71287;48.414;11.478;2023-12-20T08:45:26;1.83;;;1.73;;
9178;SDS011;71287;48.414;11.478;2023-12-20T08:47:53;2.27;;;2.00;;
9178;SDS011;71287;48.414;11.478;2023-12-20T08:50:19;1.80;;;1.70;;
9178;SDS011;71287;48.414;11.478;2023-12-20T08:52:46;2.03;;;1.83;;
9178;SDS011;71287;48.414;11.478;2023-12-20T08:55:13;1.93;;;1.83;;
9178;SDS011;71287;48.414;11.478;2023-12-20T08:57:42;1.87;;;1.67;;
9178;SDS011;71287;48.414;11.478;2023-12-20T09:00:10;3.40;;;1.70;;
9178;SDS011;71287;48.414;11.478;2023-12-20T09:02:37;2.63;;;2.00;;
9178;SDS011;71287;48.414;11.478;2023-12-20T09:05:04;2.00;;;1.73;;
9178;SDS011;71287;48.414;11.478;2023-12-20T09:07:31;2.70;;;1.53;;
9178;SDS011;71287;48.414;11.478;2023-12-20T09:09:58;2.00;;;1.80;;
9178;SDS011;71287;48.414;11.478;2023-12-20T09:12:25;1.80;;;1.60;;
9178;SDS011;71287;48.414;11.478;2023-12-20T09:14:53;1.63;;;1.27;;
9178;SDS011;71287;48.414;11.478;2023-12-20T09:17:20;1.73;;;1.63;;
9178;SDS011;71287;48.414;11.478;2023-12-20T09:19:48;1.53;;;1.43;;
9178;SDS011;71287;48.414;11.478;2023-12-20T09:22:15;1.50;;;1.40;;
9178;SDS011;71287;48.414;11.478;2023-12-20T09:24:42;1.37;;;1.20;;
9178;SDS011;71287;48.414;11.478;2023-12-20T09:27:09;1.40;;;1.30;;
9178;SDS011;71287;48.414;11.478;2023-12-20T09:29:36;1.30;;;1.20;;
9178;SDS011;71287;48.414;11.478;2023-12-20T09:32:05;1.57;;;1.30;;
9178;SDS011;71287;48.414;11.478;2023-12-20T09:34:31;3.80;;;1.70;;
9178;SDS011;71287;48.414;11.478;2023-12-20T09:36:58;1.33;;;1.23;;
9178;SDS011;71287;48.414;11.478;2023-12-20T09:39:25;1.40;;;1.20;;
9178;SDS011;71287;48.414;11.478;2023-12-20T09:41:56;6.57;;;1.40;;
9178;SDS011;71287;48.414;11.478;2023-12-20T09:44:26;2.50;;;1.20;;
9178;SDS011;71287;48.414;11.478;2023-12-20T09:46:54;1.13;;;1.03;;
9178;SDS011;71287;48.414;11.478;2023-12-20T09:49:23;1.10;;;1.00;;
9178;SDS011;71287;48.414;11.478;2023-12-20T09:51:53;3.43;;;1.27;;
9178;SDS011;71287;48.414;11.478;2023-12-20T09:54:20;1.50;;;1.40;;
9178;SDS011;71287;48.414;11.478;2023-12-20T09:56:48;1.13;;;1.03;;
9178;SDS011;71287;48.414;11.478;2023-12-20T09:59:15;1.37;;;1.17;;
9178;SDS011;71287;48.414;11.478;2023-12-20T10:01:42;1.90;;;1.20;;
9178;SDS011;71287;48.414;11.478;2023-12-20T10:04:09;1.63;;;1.20;;
9178;SDS011;71287;48.414;11.478;2023-12-20T10:06:40;1.53;;;1.10;;
9178;SDS011;71287;48.414;11.478;2023-12-20T10:09:07;1.30;;;1.20;;
9178;SDS011;71287;48.414;11.478;2023-12-20T10:11:34;1.93;;;0.90;;
9178;SDS011;71287;48.414;11.478;2023-12-20T10:14:02;1.33;;;1.00;;
9178;SDS011;71287;48.414;11.478;2023-12-20T10:16:29;1.20;;;1.10;;
9178;SDS011;71287;48.414;11.478;2023-12-20T10:18:56;1.03;;;0.87;;
9178;SDS011;71287;48.414;11.478;2023-12-20T10:21:23;0.70;;;0.70;;
9178;SDS011;71287;48.414;11.478;2023-12-20T10:23:52;0.90;;;0.80;;
9178;SDS011;71287;48.414;11.478;2023-12-20T10:26:20;1.80;;;1.20;;
9178;SDS011;71287;48.414;11.478;2023-12-20T10:28:49;0.80;;;0.80;;
9178;SDS011;71287;48.414;11.478;2023-12-20T10:31:27;1.90;;;0.77;;
9178;SDS011;71287;48.414;11.478;2023-12-20T10:33:55;0.90;;;0.80;;
9178;SDS011;71287;48.414;11.478;2023-12-20T10:36:23;1.27;;;0.80;;
9178;SDS011;71287;48.414;11.478;2023-12-20T10:38:53;0.60;;;0.60;;
9178;SDS011;71287;48.414;11.478;2023-12-20T10:41:23;1.30;;;1.20;;
9178;SDS011;71287;48.414;11.478;2023-12-20T10:43:52;1.40;;;1.30;;
9178;SDS011;71287;48.414;11.478;2023-12-20T10:46:21;0.83;;;0.83;;
9178;SDS011;71287;48.414;11.478;2023-12-20T10:48:48;0.90;;;0.90;;
9178;SDS011;71287;48.414;11.478;2023-12-20T10:51:18;0.70;;;0.70;;
9178;SDS011;71287;48.414;11.478;2023-12-20T10:53:45;1.27;;;0.70;;
9178;SDS011;71287;48.414;11.478;2023-12-20T10:56:15;0.80;;;0.80;;
9178;SDS011;71287;48.414;11.478;2023-12-20T10:58:43;0.80;;;0.80;;
9178;SDS011;71287;48.414;11.478;2023-12-20T11:01:12;0.73;;;0.70;;
9178;SDS011;71287;48.414;11.478;2023-12-20T11:03:40;0.57;;;0.57;;
9178;SDS011;71287;48.414;11.478;2023-12-20T11:06:13;0.63;;;0.63;;
9178;SDS011;71287;48.414;11.478;2023-12-20T11:08:50;0.73;;;0.73;;
9178;SDS011;71287;48.414;11.478;2023-12-20T11:11:26;0.47;;;0.47;;
9178;SDS011;71287;48.414;11.478;2023-12-20T11:13:59;0.70;;;0.70;;
9178;SDS011;71287;48.414;11.478;2023-12-20T11:16:30;1.03;;;0.93;;
9178;SDS011;71287;48.414;11.478;2023-12-20T11:18:57;0.73;;;0.73;;
9178;SDS011;71287;48.414;11.478;2023-12-20T11:21:30;1.10;;;1.00;;
9178;SDS011;71287;48.414;11.478;2023-12-20T11:23:57;0.63;;;0.63;;
9178;SDS011;71287;48.414;11.478;2023-12-20T11:26:28;0.70;;;0.67;;
9178;SDS011;71287;48.414;11.478;2023-12-20T11:29:01;1.00;;;1.00;;
9178;SDS011;71287;48.414;11.478;2023-12-20T11:31:59;0.80;;;0.80;;
9178;SDS011;71287;48.414;11.478;2023-12-20T11:34:26;0.60;;;0.60;;
9178;SDS011;71287;48.414;11.478;2023-12-20T11:36:58;0.83;;;0.83;;
9178;SDS011;71287;48.414;11.478;2023-12-20T11:39:25;1.50;;;0.63;;
9178;SDS011;71287;48.414;11.478;2023-12-20T11:41:55;0.60;;;0.60;;
9178;SDS011;71287;48.414;11.478;2023-12-20T11:44:24;0.50;;;0.50;;
9178;SDS011;71287;48.414;11.478;2023-12-20T11:46:51;1.23;;;0.80;;
9178;SDS011;71287;48.414;11.478;2023-12-20T11:49:22;0.67;;;0.67;;
9178;SDS011;71287;48.414;11.478;2023-12-20T11:51:49;1.77;;;0.60;;
9178;SDS011;71287;48.414;11.478;2023-12-20T11:54:16;0.60;;;0.60;;
9178;SDS011;71287;48.414;11.478;2023-12-20T11:56:43;0.80;;;0.80;;
9178;SDS011;71287;48.414;11.478;2023-12-20T11:59:11;0.77;;;0.70;;
9178;SDS011;71287;48.414;11.478;2023-12-20T12:01:38;0.63;;;0.63;;
9178;SDS011;71287;48.414;11.478;2023-12-20T12:04:05;1.37;;;0.70;;
9178;SDS011;71287;48.414;11.478;2023-12-20T12:06:32;0.63;;;0.60;;
9178;SDS011;71287;48.414;11.478;2023-12-20T12:08:59;1.37;;;0.60;;
9178;SDS011;71287;48.414;11.478;2023-12-20T12:11:26;0.60;;;0.50;;
9178;SDS011;71287;48.414;11.478;2023-12-20T12:13:53;0.87;;;0.53;;
9178;SDS011;71287;48.414;11.478;2023-12-20T12:16:21;0.67;;;0.40;;
9178;SDS011;71287;48.414;11.478;2023-12-20T12:18:54;0.40;;;0.40;;
9178;SDS011;71287;48.414;11.478;2023-12-20T12:21:22;0.50;;;0.50;;
9178;SDS011;71287;48.414;11.478;2023-12-20T12:23:48;0.50;;;0.50;;
9178;SDS011;71287;48.414;11.478;2023-12-20T12:26:15;0.40;;;0.40;;
9178;SDS011;71287;48.414;11.478;2023-12-20T12:28:42;0.40;;;0.30;;
9178;SDS011;71287;48.414;11.478;2023-12-20T12:31:12;0.57;;;0.57;;
9178;SDS011;71287;48.414;11.478;2023-12-20T12:33:41;0.50;;;0.50;;
9178;SDS011;71287;48.414;11.478;2023-12-20T12:36:08;0.53;;;0.53;;
9178;SDS011;71287;48.414;11.478;2023-12-20T12:38:36;0.40;;;0.40;;
9178;SDS011;71287;48.414;11.478;2023-12-20T12:41:03;0.60;;;0.50;;
9178;SDS011;71287;48.414;11.478;2023-12-20T12:43:31;0.87;;;0.50;;
9178;SDS011;71287;48.414;11.478;2023-12-20T12:45:58;0.87;;;0.43;;
9178;SDS011;71287;48.414;11.478;2023-12-20T12:48:25;1.23;;;0.60;;
9178;SDS011;71287;48.414;11.478;2023-12-20T12:50:54;0.50;;;0.50;;
9178;SDS011;71287;48.414;11.478;2023-12-20T12:53:24;0.37;;;0.33;;
9178;SDS011;71287;48.414;11.478;2023-12-20T12:55:51;0.67;;;0.50;;
9178;SDS011;71287;48.414;11.478;2023-12-20T12:58:18;0.83;;;0.40;;
9178;SDS011;71287;48.414;11.478;2023-12-20T13:00:45;1.07;;;0.40;;
9178;SDS011;71287;48.414;11.478;2023-12-20T13:03:12;0.47;;;0.40;;
9178;SDS011;71287;48.414;11.478;2023-12-20T13:05:38;0.70;;;0.50;;
9178;SDS011;71287;48.414;11.478;2023-12-20T13:08:07;1.07;;;0.40;;
9178;SDS011;71287;48.414;11.478;2023-12-20T13:10:34;2.43;;;1.10;;
9178;SDS011;71287;48.414;11.478;2023-12-20T13:13:01;1.63;;;0.50;;
9178;SDS011;71287;48.414;11.478;2023-12-20T13:15:29;1.90;;;0.70;;
9178;SDS011;71287;48.414;11.478;2023-12-20T13:17:56;2.57;;;0.80;;
9178;SDS011;71287;48.414;11.478;2023-12-20T13:20:23;1.00;;;0.83;;
9178;SDS011;71287;48.414;11.478;2023-12-20T13:22:50;1.17;;;0.80;;
9178;SDS011;71287;48.414;11.478;2023-12-20T13:25:18;2.63;;;0.80;;
9178;SDS011;71287;48.414;11.478;2023-12-20T13:27:45;1.30;;;0.70;;
9178;SDS011;71287;48.414;11.478;2023-12-20T13:30:12;0.90;;;0.60;;
9178;SDS011;71287;48.414;11.478;2023-12-20T13:32:39;1.07;;;0.60;;
9178;SDS011;71287;48.414;11.478;2023-12-20T13:35:06;2.60;;;0.83;;
9178;SDS011;71287;48.414;11.478;2023-12-20T13:37:33;1.50;;;0.50;;
9178;SDS011;71287;48.414;11.478;2023-12-20T13:40:00;1.53;;;0.83;;
9178;SDS011;71287;48.414;11.478;2023-12-20T13:42:29;2.07;;;0.80;;
9178;SDS011;71287;48.414;11.478;2023-12-20T13:44:56;1.87;;;0.97;;
9178;SDS011;71287;48.414;11.478;2023-12-20T13:47:22;1.97;;;0.60;;
9178;SDS011;71287;48.414;11.478;2023-12-20T13:49:49;1.87;;;0.60;;
9178;SDS011;71287;48.414;11.478;2023-12-20T13:52:16;0.83;;;0.57;;
9178;SDS011;71287;48.414;11.478;2023-12-20T13:54:43;1.37;;;0.50;;
9178;SDS011;71287;48.414;11.478;2023-12-20T13:57:10;3.30;;;0.70;;
9178;SDS011;71287;48.414;11.478;2023-12-20T13:59:38;1.60;;;0.60;;
9178;SDS011;71287;48.414;11.478;2023-12-20T14:02:05;1.00;;;0.50;;
9178;SDS011;71287;48.414;11.478;2023-12-20T14:04:31;1.10;;;0.43;;
9178;SDS011;71287;48.414;11.478;2023-12-20T14:06:58;2.23;;;0.60;;
9178;SDS011;71287;48.414;11.478;2023-12-20T14:09:25;0.90;;;0.40;;
9178;SDS011;71287;48.414;11.478;2023-12-20T14:11:52;3.03;;;0.80;;
9178;SDS011;71287;48.414;11.478;2023-12-20T14:14:19;0.50;;;0.40;;
9178;SDS011;71287;48.414;11.478;2023-12-20T14:16:48;2.90;;;0.50;;
9178;SDS011;71287;48.414;11.478;2023-12-20T14:19:16;1.70;;;0.40;;
9178;SDS011;71287;48.414;11.478;2023-12-20T14:21:42;1.80;;;0.60;;
9178;SDS011;71287;48.414;11.478;2023-12-20T14:24:10;0.60;;;0.50;;
9178;SDS011;71287;48.414;11.478;2023-12-20T14:26:39;1.67;;;0.50;;
9178;SDS011;71287;48.414;11.478;2023-12-20T14:29:06;2.47;;;0.50;;
9178;SDS011;71287;48.414;11.478;2023-12-20T14:31:34;1.77;;;0.60;;
9178;SDS011;71287;48.414;11.478;2023-12-20T14:34:03;1.00;;;0.50;;
9178;SDS011;71287;48.414;11.478;2023-12-20T14:36:30;1.37;;;0.50;;
9178;SDS011;71287;48.414;11.478;2023-12-20T14:38:57;1.50;;;0.50;;
9178;SDS011;71287;48.414;11.478;2023-12-20T14:41:24;0.93;;;0.50;;
9178;SDS011;71287;48.414;11.478;2023-12-20T14:43:51;1.70;;;0.50;;
9178;SDS011;71287;48.414;11.478;2023-12-20T14:46:18;1.77;;;0.67;;
9178;SDS011;71287;48.414;11.478;2023-12-20T14:48:45;1.03;;;0.50;;